createdAt,value
2018-12-25T00:00:54.699Z,2.60
2018-12-25T00:03:23.972Z,2.60
2018-12-25T00:05:53.275Z,2.60
2018-12-25T00:08:22.981Z,2.60
2018-12-25T00:10:52.334Z,2.60
2018-12-25T00:13:21.842Z,2.60
2018-12-25T00:15:51.159Z,2.70
2018-12-25T00:18:20.440Z,2.80
2018-12-25T00:20:49.983Z,2.80
2018-12-25T00:23:19.275Z,2.90
2018-12-25T00:25:48.804Z,2.80
2018-12-25T00:28:18.125Z,2.80
2018-12-25T00:30:48.110Z,2.70
2018-12-25T00:33:17.399Z,2.70
2018-12-25T00:35:46.840Z,2.70
2018-12-25T00:38:16.549Z,2.70
2018-12-25T00:40:45.782Z,2.60
2018-12-25T00:43:16.445Z,2.60
2018-12-25T00:45:46.151Z,2.60
2018-12-25T00:48:15.812Z,2.50
2018-12-25T00:50:45.088Z,2.60
2018-12-25T00:53:14.712Z,2.50
2018-12-25T00:55:44.398Z,2.50
2018-12-25T00:58:13.691Z,2.50
2018-12-25T01:00:43.304Z,2.40
2018-12-25T01:03:12.592Z,2.40
2018-12-25T01:05:41.995Z,2.30
2018-12-25T01:08:11.691Z,2.30
2018-12-25T01:10:40.967Z,2.40
2018-12-25T01:13:10.410Z,2.40
2018-12-25T01:15:39.845Z,2.40
2018-12-25T01:18:09.596Z,2.50
2018-12-25T01:20:39.011Z,2.50
2018-12-25T01:23:08.315Z,2.50
2018-12-25T01:25:37.702Z,2.50
2018-12-25T01:28:07.547Z,2.60
2018-12-25T01:30:36.821Z,2.50
2018-12-25T01:33:06.378Z,2.50
2018-12-25T01:35:35.879Z,2.60
2018-12-25T01:38:05.159Z,2.60
2018-12-25T01:40:34.698Z,2.60
2018-12-25T01:43:04.274Z,2.60
2018-12-25T01:45:33.884Z,2.70
2018-12-25T01:48:03.498Z,2.60
2018-12-25T01:50:32.793Z,2.70
2018-12-25T01:53:02.349Z,2.70
2018-12-25T01:55:31.615Z,2.70
2018-12-25T01:58:00.931Z,2.70
2018-12-25T02:00:30.211Z,2.80
2018-12-25T02:02:59.910Z,2.80
2018-12-25T02:05:29.198Z,2.80
2018-12-25T02:07:58.458Z,2.70
2018-12-25T02:10:28.494Z,2.80
2018-12-25T02:12:58.032Z,2.80
2018-12-25T02:15:27.324Z,2.80
2018-12-25T02:17:56.589Z,2.80
2018-12-25T02:20:26.237Z,2.80
2018-12-25T02:22:55.778Z,2.80
2018-12-25T02:25:25.346Z,2.80
2018-12-25T02:27:54.622Z,2.80
2018-12-25T02:30:23.918Z,2.80
2018-12-25T02:32:53.231Z,2.80
2018-12-25T02:35:22.560Z,2.90
2018-12-25T02:37:51.875Z,2.90
2018-12-25T02:40:21.172Z,2.90
2018-12-25T02:42:53.007Z,2.80
2018-12-25T02:45:22.321Z,2.80
2018-12-25T02:47:51.612Z,2.90
2018-12-25T02:50:20.869Z,2.80
2018-12-25T02:52:50.144Z,2.80
2018-12-25T02:55:19.827Z,2.80
2018-12-25T02:57:49.548Z,2.80
2018-12-25T03:00:19.408Z,2.80
2018-12-25T03:02:57.621Z,2.80
2018-12-25T03:05:26.875Z,2.80
2018-12-25T03:07:56.433Z,2.80
2018-12-25T03:10:25.712Z,2.80
2018-12-25T03:12:55.075Z,2.90
2018-12-25T03:15:24.375Z,2.90
2018-12-25T03:17:53.663Z,2.90
2018-12-25T03:20:22.954Z,2.90
2018-12-25T03:22:52.246Z,3.00
2018-12-25T03:25:21.584Z,3.00
2018-12-25T03:27:50.877Z,3.00
2018-12-25T03:30:20.208Z,3.00
2018-12-25T03:32:49.597Z,3.00
2018-12-25T03:35:18.878Z,3.00
2018-12-25T03:37:48.160Z,3.00
2018-12-25T03:40:17.464Z,3.00
2018-12-25T03:42:46.769Z,3.00
2018-12-25T03:45:16.045Z,3.00
2018-12-25T03:47:45.755Z,3.10
2018-12-25T03:50:15.041Z,3.00
2018-12-25T03:52:44.664Z,3.00
2018-12-25T03:55:14.380Z,3.00
2018-12-25T03:57:43.703Z,3.00
2018-12-25T04:00:12.992Z,3.00
2018-12-25T04:02:42.274Z,3.10
2018-12-25T04:05:11.532Z,3.00
2018-12-25T04:07:40.809Z,3.00
2018-12-25T04:10:10.460Z,3.00
2018-12-25T04:12:39.721Z,3.00
2018-12-25T04:15:09.001Z,3.00
2018-12-25T04:17:38.344Z,3.00
2018-12-25T04:20:08.274Z,3.00
2018-12-25T04:22:37.542Z,3.00
2018-12-25T04:25:06.825Z,3.00
2018-12-25T04:27:36.113Z,3.00
2018-12-25T04:30:05.668Z,3.00
2018-12-25T04:32:35.286Z,3.00
2018-12-25T04:35:04.973Z,3.00
2018-12-25T04:37:34.766Z,3.00
2018-12-25T04:40:04.165Z,3.00
2018-12-25T04:42:33.511Z,3.10
2018-12-25T04:45:03.057Z,3.10
2018-12-25T04:47:32.321Z,3.10
2018-12-25T04:50:01.660Z,3.10
2018-12-25T04:52:31.205Z,3.10
2018-12-25T04:55:00.462Z,3.10
2018-12-25T04:57:29.722Z,3.10
2018-12-25T04:59:59.272Z,3.10
2018-12-25T05:02:28.537Z,3.10
2018-12-25T05:04:57.827Z,3.10
2018-12-25T05:07:27.073Z,3.10
2018-12-25T05:09:56.728Z,3.10
2018-12-25T05:12:26.062Z,3.10
2018-12-25T05:14:55.663Z,3.10
2018-12-25T05:17:24.947Z,3.10
2018-12-25T05:19:54.227Z,3.10
2018-12-25T05:22:23.508Z,3.10
2018-12-25T05:24:52.794Z,3.10
2018-12-25T05:27:22.091Z,3.20
2018-12-25T05:29:51.547Z,3.20
2018-12-25T05:32:21.107Z,3.20
2018-12-25T05:34:50.790Z,3.20
2018-12-25T05:37:20.067Z,3.20
2018-12-25T05:39:49.421Z,3.20
2018-12-25T05:42:18.987Z,3.20
2018-12-25T05:44:48.268Z,3.20
2018-12-25T05:47:17.932Z,3.20
2018-12-25T05:49:47.338Z,3.20
2018-12-25T05:52:16.902Z,3.20
2018-12-25T05:54:46.243Z,3.20
2018-12-25T05:57:15.814Z,3.20
2018-12-25T05:59:45.814Z,3.20
2018-12-25T06:02:15.112Z,3.30
2018-12-25T06:04:44.733Z,3.30
2018-12-25T06:07:14.363Z,3.20
2018-12-25T06:09:43.744Z,3.30
2018-12-25T06:12:13.352Z,3.20
2018-12-25T06:14:42.619Z,3.30
2018-12-25T06:17:11.925Z,3.30
2018-12-25T06:19:41.309Z,3.30
2018-12-25T06:22:11.275Z,3.40
2018-12-25T06:24:40.526Z,3.40
2018-12-25T06:27:09.793Z,3.40
2018-12-25T06:29:39.083Z,3.40
2018-12-25T06:32:08.343Z,3.40
2018-12-25T06:34:43.031Z,3.40
2018-12-25T06:37:11.911Z,3.40
2018-12-25T06:39:41.202Z,3.40
2018-12-25T06:42:10.788Z,3.50
2018-12-25T06:44:40.391Z,3.50
2018-12-25T06:47:09.743Z,3.50
2018-12-25T06:49:39.308Z,3.40
2018-12-25T06:52:08.565Z,3.40
2018-12-25T06:54:39.432Z,3.50
2018-12-25T06:57:12.016Z,3.50
2018-12-25T06:59:41.342Z,3.50
2018-12-25T07:02:10.979Z,3.50
2018-12-25T07:04:40.374Z,3.50
2018-12-25T07:07:18.554Z,3.50
2018-12-25T07:09:48.132Z,3.60
2018-12-25T07:12:17.445Z,3.70
2018-12-25T07:14:46.731Z,3.60
2018-12-25T07:17:16.346Z,3.60
2018-12-25T07:19:46.236Z,3.60
2018-12-25T07:22:15.927Z,3.60
2018-12-25T07:24:45.559Z,3.50
2018-12-25T07:27:14.835Z,3.50
2018-12-25T07:29:44.134Z,3.50
2018-12-25T07:32:13.771Z,3.50
2018-12-25T07:34:43.391Z,3.50
2018-12-25T07:37:12.924Z,3.50
2018-12-25T07:39:42.254Z,3.50
2018-12-25T07:42:11.524Z,3.50
2018-12-25T07:44:40.920Z,3.50
2018-12-25T07:47:11.334Z,3.60
2018-12-25T07:49:41.004Z,3.60
2018-12-25T07:52:10.388Z,3.70
2018-12-25T07:54:39.657Z,3.70
2018-12-25T07:57:08.922Z,3.60
2018-12-25T07:59:38.535Z,3.70
2018-12-25T08:02:11.241Z,3.60
2018-12-25T08:04:40.907Z,3.60
2018-12-25T08:07:11.033Z,3.60
2018-12-25T08:09:40.682Z,3.60
2018-12-25T08:12:10.244Z,3.70
2018-12-25T08:14:40.112Z,3.60
2018-12-25T08:17:09.728Z,3.60
2018-12-25T08:19:39.394Z,3.60
2018-12-25T08:22:09.000Z,3.60
2018-12-25T08:24:38.330Z,3.60
2018-12-25T08:27:07.659Z,3.60
2018-12-25T08:29:37.086Z,3.60
2018-12-25T08:32:06.682Z,3.50
2018-12-25T08:34:35.967Z,3.60
2018-12-25T08:37:05.243Z,3.60
2018-12-25T08:39:35.209Z,3.60
2018-12-25T08:42:04.819Z,3.70
2018-12-25T08:44:34.465Z,3.80
2018-12-25T08:47:04.057Z,3.80
2018-12-25T08:49:33.356Z,3.90
2018-12-25T08:52:02.944Z,3.90
2018-12-25T08:54:32.535Z,4.00
2018-12-25T08:57:02.077Z,4.00
2018-12-25T08:59:31.794Z,4.10
2018-12-25T09:02:01.347Z,4.20
2018-12-25T09:04:30.969Z,4.20
2018-12-25T09:07:00.255Z,4.30
2018-12-25T09:09:29.558Z,4.30
2018-12-25T09:11:58.840Z,4.40
2018-12-25T09:14:28.131Z,4.40
2018-12-25T09:16:57.651Z,4.40
2018-12-25T09:19:26.952Z,4.50
2018-12-25T09:21:56.478Z,4.60
2018-12-25T09:24:25.992Z,4.70
2018-12-25T09:26:55.291Z,4.70
2018-12-25T09:29:25.046Z,4.80
2018-12-25T09:31:54.348Z,4.90
2018-12-25T09:34:23.652Z,4.90
2018-12-25T09:36:53.201Z,4.90
2018-12-25T09:39:22.726Z,5.00
2018-12-25T09:41:52.014Z,5.20
2018-12-25T09:44:21.652Z,5.40
2018-12-25T09:46:51.238Z,5.40
2018-12-25T09:49:20.547Z,5.60
2018-12-25T09:51:54.514Z,5.80
2018-12-25T09:54:21.522Z,5.90
2018-12-25T09:56:50.819Z,5.90
2018-12-25T09:59:20.079Z,6.00
2018-12-25T10:01:50.937Z,6.10
2018-12-25T10:04:20.680Z,6.20
2018-12-25T10:06:50.094Z,6.20
2018-12-25T10:09:19.384Z,6.20
2018-12-25T10:11:49.275Z,6.30
2018-12-25T10:14:18.571Z,6.20
2018-12-25T10:16:49.799Z,6.20
2018-12-25T10:19:19.206Z,6.10
2018-12-25T10:21:48.783Z,5.90
2018-12-25T10:24:18.347Z,6.00
2018-12-25T10:26:47.611Z,6.10
2018-12-25T10:29:17.324Z,6.20
2018-12-25T10:31:46.918Z,6.30
2018-12-25T10:34:16.219Z,6.30
2018-12-25T10:37:05.052Z,6.20
2018-12-25T10:39:33.976Z,6.40
2018-12-25T10:42:04.043Z,6.40
2018-12-25T10:44:34.488Z,6.50
2018-12-25T10:47:03.819Z,6.50
2018-12-25T10:49:33.192Z,6.40
2018-12-25T10:52:02.735Z,6.50
2018-12-25T10:54:32.315Z,6.50
2018-12-25T10:57:01.594Z,6.40
2018-12-25T10:59:30.922Z,6.40
2018-12-25T11:02:00.223Z,6.40
2018-12-25T11:04:30.482Z,6.50
2018-12-25T11:06:59.787Z,6.50
2018-12-25T11:09:29.098Z,6.80
2018-12-25T11:11:58.425Z,7.00
2018-12-25T11:14:28.027Z,6.90
2018-12-25T11:16:57.328Z,6.90
2018-12-25T11:19:26.891Z,7.00
2018-12-25T11:21:56.192Z,7.10
2018-12-25T11:24:25.783Z,7.10
2018-12-25T11:26:55.095Z,7.20
2018-12-25T11:29:24.799Z,7.20
2018-12-25T11:31:55.963Z,7.10
2018-12-25T11:34:32.091Z,7.10
2018-12-25T11:37:03.689Z,7.10
2018-12-25T11:39:49.588Z,7.20
2018-12-25T11:42:31.282Z,7.30
2018-12-25T11:48:03.270Z,7.40
2018-12-25T11:50:44.843Z,7.50
2018-12-25T11:53:20.655Z,7.40
2018-12-25T11:55:50.028Z,7.40
2018-12-25T11:58:19.639Z,7.40
2018-12-25T12:00:49.376Z,7.40
2018-12-25T12:03:18.694Z,7.40
2018-12-25T12:05:48.012Z,7.60
2018-12-25T12:08:17.586Z,7.60
2018-12-25T12:10:46.867Z,7.60
2018-12-25T12:13:16.471Z,7.60
2018-12-25T12:15:46.051Z,7.50
2018-12-25T12:18:15.454Z,7.50
2018-12-25T12:20:44.806Z,7.50
2018-12-25T12:23:14.843Z,7.50
2018-12-25T12:25:44.398Z,7.60
2018-12-25T12:28:13.694Z,7.50
2018-12-25T12:30:43.324Z,7.50
2018-12-25T12:33:12.619Z,7.50
2018-12-25T12:35:42.009Z,7.50
2018-12-25T12:38:11.939Z,7.30
2018-12-25T12:40:41.213Z,7.20
2018-12-25T12:43:10.601Z,7.10
2018-12-25T12:45:40.182Z,7.20
2018-12-25T12:48:09.480Z,7.20
2018-12-25T12:50:39.139Z,7.20
2018-12-25T12:53:22.259Z,7.10
2018-12-25T12:55:51.996Z,7.00
2018-12-25T12:58:21.554Z,6.90
2018-12-25T13:00:53.574Z,6.90
2018-12-25T13:03:22.897Z,7.00
2018-12-25T13:05:52.786Z,6.90
2018-12-25T13:08:22.073Z,6.90
2018-12-25T13:10:53.666Z,7.00
2018-12-25T13:13:23.552Z,7.20
2018-12-25T13:15:52.844Z,7.20
2018-12-25T13:18:22.366Z,7.40
2018-12-25T13:20:51.655Z,7.50
2018-12-25T13:23:21.195Z,7.40
2018-12-25T13:25:50.478Z,7.40
2018-12-25T13:28:20.151Z,7.40
2018-12-25T13:30:49.756Z,7.50
2018-12-25T13:33:19.067Z,7.40
2018-12-25T13:35:48.385Z,7.50
2018-12-25T13:38:19.820Z,7.50
2018-12-25T13:40:51.902Z,7.50
2018-12-25T13:43:21.371Z,7.50
2018-12-25T13:45:52.983Z,7.60
2018-12-25T13:48:22.355Z,7.60
2018-12-25T13:50:51.962Z,7.70
2018-12-25T13:53:21.336Z,7.60
2018-12-25T13:55:50.627Z,7.60
2018-12-25T13:58:19.936Z,7.60
2018-12-25T14:00:49.246Z,7.50
2018-12-25T14:03:19.376Z,7.40
2018-12-25T14:05:49.004Z,7.40
2018-12-25T14:08:20.399Z,7.40
2018-12-25T14:10:49.681Z,7.40
2018-12-25T14:13:19.327Z,7.40
2018-12-25T14:15:48.595Z,7.40
2018-12-25T14:18:18.260Z,7.40
2018-12-25T14:20:47.693Z,7.40
2018-12-25T14:23:16.979Z,7.30
2018-12-25T14:25:46.668Z,7.30
2018-12-25T14:28:16.317Z,7.20
2018-12-25T14:31:14.666Z,7.00
2018-12-25T14:37:08.228Z,6.70
2018-12-25T14:39:40.431Z,6.70
2018-12-25T15:01:31.442Z,6.60
2018-12-25T15:05:19.410Z,6.60
2018-12-25T15:07:52.843Z,6.50
2018-12-25T15:10:34.475Z,6.50
2018-12-25T15:13:07.286Z,6.60
2018-12-25T15:15:36.860Z,6.50
2018-12-25T15:18:07.879Z,6.50
2018-12-25T15:20:39.839Z,6.50
2018-12-25T15:23:09.459Z,6.50
2018-12-25T15:25:38.791Z,6.50
2018-12-25T15:28:08.370Z,6.50
2018-12-25T15:30:37.695Z,6.30
2018-12-25T15:33:08.638Z,6.30
2018-12-25T15:35:37.959Z,6.30
2018-12-25T15:38:07.310Z,6.40
2018-12-25T15:40:36.947Z,6.40
2018-12-25T15:43:06.573Z,6.50
2018-12-25T15:45:36.335Z,6.40
2018-12-25T15:48:05.705Z,6.50
2018-12-25T15:50:38.396Z,6.40
2018-12-25T15:53:07.733Z,6.30
2018-12-25T15:55:37.060Z,6.30
2018-12-25T15:58:06.942Z,6.20
2018-12-25T16:00:36.264Z,6.20
2018-12-25T16:03:05.606Z,6.10
2018-12-25T16:05:34.901Z,6.20
2018-12-25T16:08:04.314Z,6.10
2018-12-25T16:10:34.247Z,6.10
2018-12-25T16:13:03.527Z,5.90
2018-12-25T16:15:32.854Z,6.00
2018-12-25T16:18:02.573Z,6.00
2018-12-25T16:20:31.912Z,6.00
2018-12-25T16:23:01.193Z,6.10
2018-12-25T16:25:30.494Z,6.00
2018-12-25T16:27:59.773Z,5.90
2018-12-25T16:30:29.361Z,5.80
2018-12-25T16:32:58.906Z,5.70
2018-12-25T16:35:28.225Z,5.60
2018-12-25T16:37:58.088Z,5.60
2018-12-25T16:40:27.473Z,5.60
2018-12-25T16:42:56.853Z,5.60
2018-12-25T16:45:26.399Z,5.60
2018-12-25T16:47:55.734Z,5.60
2018-12-25T16:50:25.389Z,5.60
2018-12-25T16:52:54.995Z,5.70
2018-12-25T16:55:24.555Z,5.70
2018-12-25T16:57:54.195Z,5.80
2018-12-25T17:00:23.435Z,5.80
2018-12-25T17:02:52.813Z,5.80
2018-12-25T17:05:22.074Z,5.80
2018-12-25T17:07:51.395Z,5.80
2018-12-25T17:10:20.684Z,5.80
2018-12-25T17:12:50.608Z,5.80
2018-12-25T17:15:20.152Z,5.90
2018-12-25T17:17:50.006Z,5.90
2018-12-25T17:20:19.807Z,6.00
2018-12-25T17:22:49.387Z,5.90
2018-12-25T17:25:18.733Z,6.00
2018-12-25T17:27:48.288Z,5.90
2018-12-25T17:30:17.627Z,5.70
2018-12-25T17:32:47.012Z,5.60
2018-12-25T17:35:16.263Z,5.50
2018-12-25T17:37:45.998Z,5.50
2018-12-25T17:40:15.422Z,5.40
2018-12-25T17:42:44.943Z,5.50
2018-12-25T17:45:14.505Z,5.50
2018-12-25T17:47:43.818Z,5.60
2018-12-25T17:50:13.088Z,5.70
2018-12-25T17:52:42.679Z,5.60
2018-12-25T17:55:11.956Z,5.60
2018-12-25T17:57:41.263Z,5.60
2018-12-25T18:00:10.545Z,5.50
2018-12-25T18:02:40.230Z,5.50
2018-12-25T18:05:12.088Z,5.50
2018-12-25T18:07:40.590Z,5.50
2018-12-25T18:10:09.891Z,5.50
2018-12-25T18:12:39.261Z,5.60
2018-12-25T18:15:08.535Z,5.60
2018-12-25T18:17:37.903Z,5.60
2018-12-25T18:20:09.003Z,5.60
2018-12-25T18:22:38.291Z,5.50
2018-12-25T18:25:07.602Z,5.40
2018-12-25T18:27:37.284Z,5.40
2018-12-25T18:30:07.029Z,5.30
2018-12-25T18:32:36.661Z,5.30
2018-12-25T18:35:06.387Z,5.20
2018-12-25T18:37:35.808Z,5.20
2018-12-25T18:40:05.680Z,5.20
2018-12-25T18:42:35.247Z,5.10
2018-12-25T18:45:05.259Z,5.00
2018-12-25T18:47:34.537Z,5.00
2018-12-25T18:50:04.387Z,4.90
2018-12-25T18:52:34.015Z,4.90
2018-12-25T18:55:03.311Z,4.80
2018-12-25T18:57:33.021Z,4.70
2018-12-25T19:00:02.315Z,4.60
2018-12-25T19:02:31.614Z,4.50
2018-12-25T19:05:00.966Z,4.50
2018-12-25T19:07:30.543Z,4.50
2018-12-25T19:09:59.839Z,4.50
2018-12-25T19:12:29.130Z,4.50
2018-12-25T19:15:22.010Z,4.40
2018-12-25T19:17:52.300Z,4.40
2018-12-25T19:20:21.692Z,4.40
2018-12-25T19:22:51.335Z,4.30
2018-12-25T19:25:20.721Z,4.20
2018-12-25T19:27:50.640Z,4.20
2018-12-25T19:30:22.801Z,4.10
2018-12-25T19:32:52.067Z,4.10
2018-12-25T19:35:21.383Z,4.10
2018-12-25T19:37:50.676Z,4.00
2018-12-25T19:40:20.484Z,4.00
2018-12-25T19:42:50.607Z,4.00
2018-12-25T19:45:20.251Z,3.90
2018-12-25T19:47:49.864Z,3.80
2018-12-25T19:50:19.172Z,3.70
2018-12-25T19:52:48.862Z,3.70
2018-12-25T19:55:18.222Z,3.60
2018-12-25T19:57:47.507Z,3.60
2018-12-25T20:00:17.036Z,3.70
2018-12-25T20:02:52.871Z,3.70
2018-12-25T20:05:53.863Z,3.70
2018-12-25T20:09:04.839Z,3.60
2018-12-25T20:12:01.108Z,3.50
2018-12-25T20:15:08.604Z,3.30
2018-12-25T20:17:55.986Z,3.20
2018-12-25T20:21:15.246Z,3.00
2018-12-25T20:24:05.868Z,2.90
2018-12-25T20:27:18.236Z,2.80
2018-12-25T20:30:37.013Z,2.70
2018-12-25T20:34:00.909Z,2.60
2018-12-25T20:37:08.596Z,2.50
2018-12-25T20:40:13.758Z,2.50
2018-12-25T20:43:29.741Z,2.40
2018-12-25T20:46:55.780Z,2.30
2018-12-25T20:50:07.662Z,2.30
2018-12-25T20:53:07.148Z,2.20
2018-12-25T20:56:19.035Z,2.10
2018-12-25T20:59:31.132Z,2.10
2018-12-25T21:02:29.540Z,2.10
2018-12-25T21:05:58.347Z,2.00
2018-12-25T21:09:03.705Z,1.90
2018-12-25T21:12:08.982Z,1.90
2018-12-25T21:15:22.883Z,1.80
2018-12-25T21:18:38.734Z,1.70
2018-12-25T21:21:44.822Z,1.70
2018-12-25T21:24:50.014Z,1.60
2018-12-25T21:27:30.874Z,1.50
2018-12-25T21:30:02.642Z,1.50
2018-12-25T21:32:33.331Z,1.40
2018-12-25T21:35:19.305Z,1.40
2018-12-25T21:37:50.343Z,1.30
2018-12-25T21:40:19.637Z,1.30
2018-12-25T21:42:49.394Z,1.30
2018-12-25T21:45:18.931Z,1.30
2018-12-25T21:47:48.429Z,1.20
2018-12-25T21:50:17.853Z,1.20
2018-12-25T21:52:47.427Z,1.20
2018-12-25T21:55:18.830Z,1.20
2018-12-25T21:57:49.901Z,1.20
2018-12-25T22:00:20.471Z,1.20
2018-12-25T22:02:50.555Z,1.10
2018-12-25T22:05:20.918Z,1.10
2018-12-25T22:07:50.487Z,1.10
2018-12-25T22:10:20.094Z,1.00
2018-12-25T22:12:49.479Z,1.00
2018-12-25T22:15:20.052Z,0.90
2018-12-25T22:17:49.608Z,0.90
2018-12-25T22:20:28.122Z,0.90
2018-12-25T22:22:58.055Z,0.80
2018-12-25T22:25:27.621Z,0.80
2018-12-25T22:27:57.258Z,0.70
2018-12-25T22:30:26.595Z,0.70
2018-12-25T22:32:56.061Z,0.70
2018-12-25T22:35:26.011Z,0.60
2018-12-25T22:37:55.566Z,0.60
2018-12-25T22:40:24.938Z,0.50
2018-12-25T22:42:54.470Z,0.50
2018-12-25T22:45:25.987Z,0.40
2018-12-25T22:47:55.276Z,0.30
2018-12-25T22:50:24.881Z,0.30
2018-12-25T22:52:54.682Z,0.30
2018-12-25T22:55:23.971Z,0.30
2018-12-25T22:57:53.252Z,0.20
2018-12-25T23:00:22.551Z,0.20
2018-12-25T23:02:51.836Z,0.10
2018-12-25T23:05:21.451Z,0.10
2018-12-25T23:07:50.739Z,0.00
2018-12-25T23:10:20.285Z,0.00
2018-12-25T23:12:50.079Z,0.00
2018-12-25T23:15:19.368Z,0.00
2018-12-25T23:17:48.663Z,-0.10
2018-12-25T23:20:18.613Z,-0.10
2018-12-25T23:22:47.926Z,-0.20
2018-12-25T23:25:17.386Z,-0.20
2018-12-25T23:27:46.757Z,-0.20
2018-12-25T23:30:16.098Z,-0.20
2018-12-25T23:32:45.384Z,-0.20
2018-12-25T23:35:14.655Z,-0.20
2018-12-25T23:37:44.003Z,-0.20
2018-12-25T23:40:13.404Z,-0.20
2018-12-25T23:42:42.706Z,-0.20
2018-12-25T23:45:12.426Z,-0.30
2018-12-25T23:47:42.555Z,-0.30
2018-12-25T23:50:12.094Z,-0.30
2018-12-25T23:52:41.974Z,-0.30
2018-12-25T23:55:11.269Z,-0.30
2018-12-25T23:57:40.643Z,-0.30
